Time;durP1;ratioP1;P1;durP2;ratioP2;P2;SDS_P1;SDS_P2;PMS_P1;PMS_P2;Temp;Humidity;BMP_temperature;BMP_pressure;BME280_temperature;BME280_humidity;BME280_pressure;Samples;Min_cycle;Max_cycle;Signal;HPM_P1;HPM_P2
2021/05/28 00:00:00;;;;;;;9.50;6.53;;;;;;;8.88;100.00;96424.81;1052887;28;20070;-47
2021/05/28 00:00:30;;;;;;;8.70;6.50;;;;;;;8.86;100.00;96422.38;1052996;28;20065;-47
2021/05/28 00:01:01;;;;;;;10.37;6.20;;;;;;;8.76;100.00;96420.97;1052471;28;20423;-47
2021/05/28 00:01:31;;;;;;;8.33;6.03;;;;;;;8.70;100.00;96420.69;1052827;28;20468;-45
2021/05/28 00:02:01;;;;;;;9.27;7.13;;;;;;;8.68;100.00;96419.25;1052983;28;20483;-47
2021/05/28 00:02:32;;;;;;;8.30;6.37;;;;;;;8.73;100.00;96427.41;1052723;28;20357;-48
2021/05/28 00:03:02;;;;;;;8.47;6.47;;;;;;;8.73;100.00;96416.91;1052617;28;20039;-46
2021/05/28 00:03:33;;;;;;;9.20;6.73;;;;;;;8.72;100.00;96415.28;1052661;28;20069;-46
2021/05/28 00:04:04;;;;;;;9.30;7.17;;;;;;;8.74;100.00;96418.53;1052743;28;20024;-46
2021/05/28 00:04:34;;;;;;;8.73;7.20;;;;;;;8.74;100.00;96423.78;1052764;28;20031;-46
2021/05/28 00:05:05;;;;;;;10.47;6.27;;;;;;;8.72;100.00;96417.91;1052637;28;20540;-46
2021/05/28 00:05:35;;;;;;;9.37;6.30;;;;;;;8.71;100.00;96427.59;1052644;28;20085;-46
2021/05/28 00:06:06;;;;;;;8.40;6.87;;;;;;;8.71;100.00;96424.13;1052642;28;20032;-50
2021/05/28 00:06:36;;;;;;;10.70;6.80;;;;;;;8.61;100.00;96424.38;1052570;28;20024;-47
2021/05/28 00:07:07;;;;;;;8.90;6.70;;;;;;;8.57;100.00;96420.47;1048447;28;20373;-47
2021/05/28 00:07:38;;;;;;;7.83;6.47;;;;;;;8.58;100.00;96421.28;1048621;28;20050;-47
2021/05/28 00:08:08;;;;;;;7.77;6.10;;;;;;;8.60;100.00;96419.31;1048354;28;20090;-46
2021/05/28 00:08:39;;;;;;;10.30;6.30;;;;;;;8.61;100.00;96428.78;1048537;28;20051;-46
2021/05/28 00:09:09;;;;;;;11.73;6.10;;;;;;;8.62;100.00;96422.56;1052498;28;20028;-48
2021/05/28 00:09:40;;;;;;;8.60;6.00;;;;;;;8.61;100.00;96419.13;1052521;28;20081;-45
2021/05/28 00:10:11;;;;;;;9.93;6.13;;;;;;;8.60;100.00;96424.56;1053081;28;20028;-46
2021/05/28 00:10:41;;;;;;;11.20;5.87;;;;;;;8.59;100.00;96422.91;1052959;28;20015;-48
2021/05/28 00:11:12;;;;;;;7.80;6.27;;;;;;;8.56;100.00;96424.06;1052715;28;20035;-46
2021/05/28 00:11:42;;;;;;;8.10;6.23;;;;;;;8.59;100.00;96420.28;1048478;28;20052;-46
2021/05/28 00:12:13;;;;;;;11.37;7.10;;;;;;;8.59;100.00;96425.53;1048646;28;20028;-46
2021/05/28 00:12:43;;;;;;;9.00;6.40;;;;;;;8.58;100.00;96423.91;1048588;28;20413;-45
2021/05/28 00:13:14;;;;;;;8.67;6.90;;;;;;;8.58;100.00;96421.28;1052851;28;20020;-46
2021/05/28 00:13:44;;;;;;;8.87;6.70;;;;;;;8.59;100.00;96423.72;1052875;28;20023;-46
2021/05/28 00:14:15;;;;;;;10.07;6.73;;;;;;;8.60;100.00;96428.00;1052913;28;20024;-45
2021/05/28 00:14:45;;;;;;;12.33;6.60;;;;;;;8.58;100.00;96423.91;1056915;28;20020;-45
2021/05/28 00:15:16;;;;;;;9.83;6.93;;;;;;;8.56;100.00;96423.28;1056876;28;20023;-45
2021/05/28 00:15:46;;;;;;;11.47;7.07;;;;;;;8.55;100.00;96417.22;1056926;28;20108;-46
2021/05/28 00:16:17;;;;;;;10.13;7.60;;;;;;;8.56;100.00;96428.50;1056856;28;20069;-45
2021/05/28 00:16:47;;;;;;;8.27;6.53;;;;;;;8.54;100.00;96420.81;1052598;28;20028;-44
2021/05/28 00:17:18;;;;;;;12.67;7.47;;;;;;;8.52;100.00;96426.25;1052743;28;20420;-46
2021/05/28 00:17:48;;;;;;;10.00;6.93;;;;;;;8.48;100.00;96424.16;1052744;28;20054;-48
2021/05/28 00:18:18;;;;;;;8.87;7.60;;;;;;;8.45;100.00;96429.75;1052801;28;20035;-46
2021/05/28 00:18:49;;;;;;;8.53;6.53;;;;;;;8.42;100.00;96428.25;1053193;28;20011;-46
2021/05/28 00:19:19;;;;;;;8.70;7.10;;;;;;;8.44;100.00;96431.56;1052924;28;20024;-46
2021/05/28 00:19:50;;;;;;;9.73;7.37;;;;;;;8.43;100.00;96427.25;1052754;28;20023;-45
2021/05/28 00:20:20;;;;;;;12.47;7.87;;;;;;;8.44;100.00;96428.94;1052575;28;20012;-46
2021/05/28 00:20:51;;;;;;;11.07;6.23;;;;;;;8.44;100.00;96433.34;1052575;28;20082;-45
2021/05/28 00:21:21;;;;;;;7.87;6.50;;;;;;;8.44;100.00;96428.94;1052634;28;20049;-46
2021/05/28 00:21:52;;;;;;;8.27;7.37;;;;;;;8.43;100.00;96435.13;1052475;28;20016;-47
2021/05/28 00:22:22;;;;;;;10.10;7.67;;;;;;;8.41;100.00;96428.41;1052988;28;20368;-47
2021/05/28 00:22:52;;;;;;;8.67;7.27;;;;;;;8.40;100.00;96432.06;1052830;28;20024;-46
2021/05/28 00:23:23;;;;;;;11.10;6.83;;;;;;;8.41;100.00;96437.13;1052903;28;20415;-48
2021/05/28 00:23:53;;;;;;;8.07;6.47;;;;;;;8.38;100.00;96434.00;1052711;28;20016;-46
2021/05/28 00:24:24;;;;;;;11.33;7.07;;;;;;;8.38;100.00;96426.97;1052644;28;20027;-51
2021/05/28 00:24:54;;;;;;;9.27;6.47;;;;;;;8.35;100.00;96427.28;1052926;28;20020;-48
2021/05/28 00:25:25;;;;;;;8.57;6.77;;;;;;;8.34;100.00;96429.09;1053054;28;20352;-45
2021/05/28 00:25:55;;;;;;;9.53;7.40;;;;;;;8.32;100.00;96425.84;1052778;28;20065;-46
2021/05/28 00:26:26;;;;;;;7.93;7.10;;;;;;;8.32;100.00;96427.63;1052907;28;20039;-46
2021/05/28 00:26:56;;;;;;;9.60;6.77;;;;;;;8.28;100.00;96427.19;1052896;28;20008;-47
2021/05/28 00:27:30;;;;;;;9.03;6.70;;;;;;;8.28;100.00;96429.00;1052801;28;20073;-46
2021/05/28 00:28:00;;;;;;;9.30;7.38;;;;;;;8.28;100.00;96429.81;1052800;28;20028;-46
2021/05/28 00:28:31;;;;;;;9.60;7.50;;;;;;;8.28;100.00;96429.00;1052967;28;20062;-45
2021/05/28 00:29:01;;;;;;;9.17;7.23;;;;;;;8.28;100.00;96429.00;1052878;28;20465;-46
2021/05/28 00:29:32;;;;;;;9.83;7.13;;;;;;;8.29;100.00;96433.22;1052905;28;20020;-47
2021/05/28 00:30:03;;;;;;;9.60;7.27;;;;;;;8.23;100.00;96426.91;1052858;28;20020;-49
2021/05/28 00:30:33;;;;;;;9.18;7.25;;;;;;;8.23;100.00;96429.50;1052850;28;20072;-46
2021/05/28 00:31:04;;;;;;;10.33;7.10;;;;;;;8.22;100.00;96424.44;1052778;28;20442;-46
2021/05/28 00:31:34;;;;;;;10.37;7.13;;;;;;;8.22;100.00;96429.69;1052856;28;20012;-47
2021/05/28 00:32:05;;;;;;;11.50;6.97;;;;;;;8.19;100.00;96429.03;1052379;28;20016;-48
2021/05/28 00:32:35;;;;;;;9.90;7.23;;;;;;;8.18;100.00;96432.66;1052514;28;20038;-47
2021/05/28 00:33:06;;;;;;;10.20;7.27;;;;;;;8.17;100.00;96423.16;1052527;28;20012;-45
2021/05/28 00:33:36;;;;;;;10.30;7.40;;;;;;;8.17;100.00;96427.59;1048460;28;20036;-46
2021/05/28 00:34:07;;;;;;;8.93;6.83;;;;;;;8.14;100.00;96423.50;1052406;28;20012;-47
2021/05/28 00:34:37;;;;;;;10.47;7.47;;;;;;;8.12;100.00;96427.25;1048223;28;20020;-46
2021/05/28 00:35:08;;;;;;;11.93;8.37;;;;;;;8.12;100.00;96432.50;1048514;28;20021;-46
2021/05/28 00:35:38;;;;;;;11.93;8.30;;;;;;;8.12;100.00;96425.47;1052560;28;20046;-46
2021/05/28 00:36:09;;;;;;;11.63;8.63;;;;;;;8.14;100.00;96423.50;1052552;28;20409;-45
2021/05/28 00:36:39;;;;;;;9.87;7.53;;;;;;;8.14;100.00;96439.22;1052682;28;20020;-46
2021/05/28 00:37:10;;;;;;;9.57;6.93;;;;;;;8.11;100.00;96428.28;1052786;28;20008;-47
2021/05/28 00:37:41;;;;;;;10.80;7.53;;;;;;;8.11;100.00;96429.09;1052956;28;20016;-45
2021/05/28 00:38:11;;;;;;;12.15;8.13;;;;;;;8.12;100.00;96435.97;1052839;28;20024;-45
2021/05/28 00:38:42;;;;;;;11.27;7.93;;;;;;;8.13;100.00;96434.97;1052766;28;20016;-47
2021/05/28 00:39:13;;;;;;;8.20;6.87;;;;;;;8.12;100.00;96433.34;1052966;28;20467;-46
2021/05/28 00:39:43;;;;;;;10.03;7.30;;;;;;;8.10;100.00;96426.63;1052925;28;20027;-45
2021/05/28 00:40:15;;;;;;;10.87;7.27;;;;;;;8.09;100.00;96431.06;1052584;28;20008;-45
2021/05/28 00:40:45;;;;;;;8.85;7.15;;;;;;;8.13;100.00;96431.53;1052454;28;20766;-46
2021/05/28 00:41:16;;;;;;;9.27;7.10;;;;;;;8.13;100.00;96432.34;1052551;28;20019;-46
2021/05/28 00:41:46;;;;;;;12.70;7.97;;;;;;;8.13;100.00;96429.72;1052634;28;20019;-45
2021/05/28 00:42:16;;;;;;;8.93;7.33;;;;;;;8.15;100.00;96437.41;1052838;28;20016;-46
2021/05/28 00:42:47;;;;;;;9.23;7.77;;;;;;;8.13;100.00;96431.53;1052804;28;20411;-46
2021/05/28 00:43:17;;;;;;;10.37;7.70;;;;;;;8.13;100.00;96431.53;1052557;28;20012;-46
2021/05/28 00:43:48;;;;;;;9.10;6.97;;;;;;;8.13;100.00;96434.16;1052483;28;20065;-45
2021/05/28 00:44:22;;;;;;;8.23;7.00;;;;;;;8.07;100.00;96433.03;1052305;28;20027;-46
2021/05/28 00:44:53;;;;;;;9.30;7.70;;;;;;;8.08;100.00;96433.88;1053140;28;20476;-45
2021/05/28 00:45:23;;;;;;;8.63;7.10;;;;;;;8.09;100.00;96436.31;1056308;28;20065;-47
2021/05/28 00:45:54;;;;;;;9.80;6.70;;;;;;;8.08;100.00;96420.75;1052942;28;20614;-47
2021/05/28 00:46:26;;;;;;;9.73;7.60;;;;;;;8.10;100.00;96431.88;1052682;28;20035;-46
2021/05/28 00:46:56;;;;;;;10.25;7.00;;;;;;;8.08;100.00;96426.00;1052817;28;20491;-47
2021/05/28 00:47:27;;;;;;;9.30;6.97;;;;;;;8.03;100.00;96431.72;1052862;28;20016;-46
2021/05/28 00:47:57;;;;;;;8.47;6.50;;;;;;;8.01;100.00;96429.28;1052939;28;20458;-45
2021/05/28 00:48:28;;;;;;;8.23;7.07;;;;;;;8.00;100.00;96426.81;1052838;28;20028;-45
2021/05/28 00:48:58;;;;;;;9.57;7.53;;;;;;;8.00;100.00;96426.81;1052568;28;20059;-45
2021/05/28 00:49:29;;;;;;;8.80;7.50;;;;;;;8.05;100.00;96428.94;1052858;28;20436;-47
2021/05/28 00:49:59;;;;;;;8.93;7.53;;;;;;;8.04;100.00;96428.13;1052775;28;20465;-47
2021/05/28 00:50:30;;;;;;;8.03;6.50;;;;;;;8.03;100.00;96426.47;1052816;28;20020;-45
2021/05/28 00:51:00;;;;;;;8.57;6.90;;;;;;;8.00;100.00;96425.03;1052740;28;20020;-47
2021/05/28 00:51:31;;;;;;;8.30;6.37;;;;;;;7.99;100.00;96431.25;1052928;28;20012;-46
2021/05/28 00:52:02;;;;;;;7.07;6.37;;;;;;;7.98;100.00;96429.63;1052795;28;20020;-46
2021/05/28 00:52:33;;;;;;;8.10;6.90;;;;;;;8.00;100.00;96427.66;1052923;28;20016;-45
2021/05/28 00:53:03;;;;;;;7.63;6.53;;;;;;;8.01;100.00;96425.84;1052393;28;20016;-46
2021/05/28 00:53:34;;;;;;;9.73;6.67;;;;;;;7.98;100.00;96423.56;1052235;28;20035;-48
2021/05/28 00:54:05;;;;;;;8.50;6.23;;;;;;;7.98;100.00;96423.56;1052474;28;20027;-46
2021/05/28 00:54:35;;;;;;;11.95;6.88;;;;;;;7.96;100.00;96426.38;1048166;28;20093;-48
2021/05/28 00:55:06;;;;;;;7.60;6.50;;;;;;;7.97;100.00;96428.00;1048214;28;20063;-47
2021/05/28 00:55:37;;;;;;;7.70;6.32;;;;;;;7.97;100.00;96427.16;1048361;28;20354;-45
2021/05/28 00:56:13;;;;;;;10.20;6.60;;;;;;;8.00;100.00;96426.81;1048576;28;20031;-47
2021/05/28 00:56:43;;;;;;;8.60;6.95;;;;;;;7.98;100.00;96423.56;1052002;28;20487;-44
2021/05/28 00:57:14;;;;;;;8.77;6.47;;;;;;;7.97;100.00;96427.16;1056813;28;20016;-45
2021/05/28 00:57:44;;;;;;;9.57;7.13;;;;;;;7.98;100.00;96426.19;1048360;28;20020;-46
2021/05/28 00:58:15;;;;;;;10.47;7.47;;;;;;;7.95;100.00;96424.72;1048336;28;20048;-47
2021/05/28 00:58:46;;;;;;;9.63;7.03;;;;;;;7.95;100.00;96423.91;1048319;28;20020;-46
2021/05/28 00:59:17;;;;;;;9.98;6.60;;;;;;;7.96;100.00;96428.97;1044585;28;20086;-46
2021/05/28 00:59:50;;;;;;;9.10;6.85;;;;;;;7.94;100.00;96427.50;1048301;28;20102;-49
2021/05/28 01:00:21;;;;;;;8.85;7.20;;;;;;;7.99;100.00;96425.22;1044298;28;20020;-46
2021/05/28 01:00:52;;;;;;;9.73;6.75;;;;;;;7.96;100.00;96425.56;1044695;28;20028;-46
2021/05/28 01:01:22;;;;;;;13.07;6.83;;;;;;;7.94;100.00;96423.09;1044940;28;20017;-49
2021/05/28 01:01:54;;;;;;;9.20;6.90;;;;;;;7.89;100.00;96433.25;1048232;28;20427;-47
2021/05/28 01:02:25;;;;;;;11.05;7.53;;;;;;;7.94;100.00;96430.13;1048299;28;20209;-49
2021/05/28 01:02:55;;;;;;;11.10;6.93;;;;;;;7.92;100.00;96432.13;1048522;28;20128;-46
2021/05/28 01:03:25;;;;;;;8.23;7.07;;;;;;;7.93;100.00;96434.56;1052570;28;20028;-46
2021/05/28 01:03:56;;;;;;;9.77;7.10;;;;;;;7.91;100.00;96433.94;1052737;28;20522;-46
2021/05/28 01:04:26;;;;;;;10.80;7.17;;;;;;;7.95;100.00;96431.78;1052680;28;20027;-48
2021/05/28 01:04:57;;;;;;;10.30;7.17;;;;;;;7.95;100.00;96434.41;1052653;28;20112;-47
2021/05/28 01:05:27;;;;;;;8.67;7.20;;;;;;;7.93;100.00;96429.31;1052872;28;20377;-47
2021/05/28 01:05:58;;;;;;;13.33;7.13;;;;;;;7.91;100.00;96433.94;1052841;28;20487;-46
2021/05/28 01:06:28;;;;;;;11.60;6.73;;;;;;;7.93;100.00;96431.13;1052270;28;20396;-47
2021/05/28 01:06:59;;;;;;;8.77;6.30;;;;;;;7.94;100.00;96433.59;1052496;28;20423;-46
2021/05/28 01:07:29;;;;;;;9.90;6.30;;;;;;;7.96;100.00;96434.22;1052566;28;20026;-46
2021/05/28 01:08:00;;;;;;;9.20;6.80;;;;;;;7.93;100.00;96436.38;1052508;28;20024;-46
2021/05/28 01:08:30;;;;;;;9.13;6.03;;;;;;;7.93;100.00;96436.38;1052864;28;20012;-45
2021/05/28 01:09:01;;;;;;;12.03;6.50;;;;;;;7.95;100.00;96440.44;1052725;28;20047;-47
2021/05/28 01:09:31;;;;;;;10.37;6.47;;;;;;;7.96;100.00;96438.66;1052782;28;20020;-48
2021/05/28 01:10:03;;;;;;;8.33;6.30;;;;;;;7.96;100.00;96436.03;1052780;28;20017;-49
2021/05/28 01:10:33;;;;;;;8.05;7.07;;;;;;;8.01;100.00;96442.38;1052747;28;20055;-47
2021/05/28 01:11:04;;;;;;;8.63;7.60;;;;;;;8.03;100.00;96442.22;1052651;28;20047;-48
2021/05/28 01:11:35;;;;;;;10.03;7.47;;;;;;;8.06;100.00;96441.06;1052818;28;20008;-47
2021/05/28 01:12:06;;;;;;;12.43;7.30;;;;;;;8.06;100.00;96444.53;1052725;28;20049;-46
2021/05/28 01:12:37;;;;;;;8.80;6.80;;;;;;;8.00;100.00;96437.31;1052744;28;20019;-45
2021/05/28 01:13:09;;;;;;;9.93;6.93;;;;;;;7.97;100.00;96442.91;1052665;28;20012;-47
2021/05/28 01:13:39;;;;;;;8.63;6.70;;;;;;;7.89;100.00;96435.88;1052768;28;20115;-48
2021/05/28 01:14:09;;;;;;;9.53;7.27;;;;;;;7.89;100.00;96435.88;1052875;28;20034;-49
2021/05/28 01:14:41;;;;;;;7.47;6.27;;;;;;;7.93;100.00;96441.63;1052725;28;20016;-46
2021/05/28 01:15:11;;;;;;;8.55;6.78;;;;;;;7.89;100.00;96435.88;1052647;28;20016;-45
2021/05/28 01:15:42;;;;;;;9.27;6.43;;;;;;;7.91;100.00;96438.34;1052719;28;20028;-46
2021/05/28 01:16:12;;;;;;;9.90;7.00;;;;;;;7.94;100.00;96438.00;1052871;28;20458;-47
2021/05/28 01:16:43;;;;;;;7.70;6.10;;;;;;;7.95;100.00;96437.81;1056589;28;20023;-46
2021/05/28 01:17:13;;;;;;;9.57;6.87;;;;;;;7.96;100.00;96431.59;1052312;28;20349;-46
2021/05/28 01:17:44;;;;;;;7.73;6.93;;;;;;;7.95;100.00;96435.22;1048200;28;20031;-46
2021/05/28 01:18:14;;;;;;;8.77;7.00;;;;;;;7.96;100.00;96433.41;1048833;28;20484;-45
2021/05/28 01:18:45;;;;;;;12.30;6.97;;;;;;;7.92;100.00;96435.53;1049110;28;20021;-46
2021/05/28 01:19:16;;;;;;;9.73;6.47;;;;;;;7.92;100.00;96434.75;1053269;28;20064;-46
2021/05/28 01:19:46;;;;;;;8.93;6.23;;;;;;;7.92;100.00;96429.50;1053586;28;20422;-46
2021/05/28 01:20:16;;;;;;;8.83;6.60;;;;;;;7.88;100.00;96434.28;1053231;28;20020;-45
2021/05/28 01:20:47;;;;;;;10.83;6.50;;;;;;;7.89;100.00;96428.03;1053285;28;20008;-45
2021/05/28 01:21:18;;;;;;;8.23;7.10;;;;;;;7.93;100.00;96428.53;1053258;28;20020;-45
2021/05/28 01:21:48;;;;;;;8.10;5.97;;;;;;;7.94;100.00;96432.75;1053299;28;20065;-47
2021/05/28 01:22:19;;;;;;;11.23;6.87;;;;;;;7.89;100.00;96433.25;1053632;28;20491;-46
2021/05/28 01:22:52;;;;;;;8.68;6.90;;;;;;;7.89;100.00;96429.84;1053660;28;20016;-47
2021/05/28 01:23:22;;;;;;;7.90;6.32;;;;;;;7.84;100.00;96432.97;1053522;28;20028;-45
2021/05/28 01:23:53;;;;;;;11.30;7.00;;;;;;;7.83;100.00;96431.31;1053411;28;20008;-51
2021/05/28 01:24:24;;;;;;;12.23;6.97;;;;;;;7.83;100.00;96421.69;1053287;28;20091;-49
2021/05/28 01:24:54;;;;;;;8.53;6.90;;;;;;;7.82;100.00;96434.97;1053554;28;20453;-48
2021/05/28 01:25:25;;;;;;;8.57;7.23;;;;;;;7.79;100.00;96433.47;1053552;28;20039;-46
2021/05/28 01:25:56;;;;;;;8.95;6.63;;;;;;;7.79;100.00;96437.91;1053464;28;20019;-45
2021/05/28 01:26:26;;;;;;;8.63;7.50;;;;;;;7.75;100.00;96437.41;1053329;28;20091;-49
2021/05/28 01:26:57;;;;;;;9.07;6.20;;;;;;;7.76;100.00;96436.44;1053537;28;20043;-48
2021/05/28 01:27:28;;;;;;;8.68;6.85;;;;;;;7.76;100.00;96430.41;1053404;28;20004;-49
2021/05/28 01:27:59;;;;;;;7.93;6.30;;;;;;;7.78;100.00;96431.03;1053552;28;20024;-45
2021/05/28 01:28:29;;;;;;;7.70;6.70;;;;;;;7.81;100.00;96433.31;1053071;28;20020;-47
2021/05/28 01:29:00;;;;;;;9.03;6.83;;;;;;;7.85;100.00;96436.41;1048917;28;20024;-46
2021/05/28 01:29:30;;;;;;;7.60;6.80;;;;;;;7.82;100.00;96429.72;1048988;28;20035;-45
2021/05/28 01:30:02;;;;;;;9.40;6.70;;;;;;;7.78;100.00;96436.28;1049106;28;20144;-46
2021/05/28 01:30:32;;;;;;;8.18;6.75;;;;;;;7.78;100.00;96433.66;1053206;28;20078;-48
2021/05/28 01:31:02;;;;;;;8.60;7.00;;;;;;;7.74;100.00;96432.34;1053569;28;20042;-46
2021/05/28 01:31:33;;;;;;;8.57;7.20;;;;;;;7.74;100.00;96441.03;1053526;28;20031;-47
2021/05/28 01:32:03;;;;;;;8.50;7.00;;;;;;;7.69;100.00;96430.25;1053168;28;20020;-46
2021/05/28 01:32:34;;;;;;;8.77;7.27;;;;;;;7.75;100.00;96434.00;1053262;28;20016;-45
2021/05/28 01:33:05;;;;;;;11.17;6.83;;;;;;;7.73;100.00;96431.53;1053353;28;20034;-46
2021/05/28 01:33:39;;;;;;;10.23;6.83;;;;;;;7.71;100.00;96435.31;1053447;28;20116;-45
2021/05/28 01:34:10;;;;;;;9.85;7.28;;;;;;;7.68;100.00;96435.66;1056479;28;20272;-46
2021/05/28 01:34:40;;;;;;;11.33;7.50;;;;;;;7.68;100.00;96435.66;1048838;28;20043;-46
2021/05/28 01:35:12;;;;;;;10.53;7.63;;;;;;;7.64;100.00;96428.13;1049074;28;20051;-46
2021/05/28 01:35:42;;;;;;;8.73;7.53;;;;;;;7.69;100.00;96434.66;1049233;28;20024;-45
2021/05/28 01:36:13;;;;;;;9.07;7.17;;;;;;;7.65;100.00;96434.16;1053187;28;20028;-44
2021/05/28 01:36:43;;;;;;;8.93;6.90;;;;;;;7.66;100.00;96430.56;1053233;28;20069;-45
2021/05/28 01:37:14;;;;;;;8.33;7.10;;;;;;;7.65;100.00;96432.38;1053534;28;20460;-46
2021/05/28 01:37:44;;;;;;;9.50;7.27;;;;;;;7.66;100.00;96427.97;1053473;28;20388;-46
2021/05/28 01:38:15;;;;;;;9.27;7.27;;;;;;;7.67;100.00;96432.22;1053452;28;20457;-45
2021/05/28 01:38:45;;;;;;;8.73;7.23;;;;;;;7.66;100.00;96433.19;1053460;28;20012;-47
2021/05/28 01:39:15;;;;;;;7.90;6.90;;;;;;;7.70;100.00;96431.88;1053425;28;20027;-47
2021/05/28 01:39:47;;;;;;;9.43;7.53;;;;;;;7.67;100.00;96428.75;1053475;28;20100;-47
2021/05/28 01:40:18;;;;;;;8.85;6.85;;;;;;;7.65;100.00;96429.78;1053255;28;20031;-45
2021/05/28 01:40:49;;;;;;;12.20;6.80;;;;;;;7.64;100.00;96433.38;1053427;28;20016;-46
2021/05/28 01:41:19;;;;;;;10.60;7.90;;;;;;;7.59;100.00;96435.69;1053523;28;20020;-45
2021/05/28 01:41:50;;;;;;;9.10;7.57;;;;;;;7.56;100.00;96428.16;1053619;28;20020;-45
2021/05/28 01:42:20;;;;;;;8.97;7.37;;;;;;;7.58;100.00;96428.00;1053440;28;20494;-45
2021/05/28 01:42:51;;;;;;;8.73;7.20;;;;;;;7.57;100.00;96428.97;1053606;28;20099;-46
2021/05/28 01:43:21;;;;;;;8.53;7.27;;;;;;;7.55;100.00;96431.75;1053758;28;20016;-46
2021/05/28 01:43:52;;;;;;;11.27;7.43;;;;;;;7.58;100.00;96428.81;1053515;28;20020;-45
2021/05/28 01:44:22;;;;;;;9.33;7.20;;;;;;;7.59;100.00;96427.00;1053300;28;20016;-46
2021/05/28 01:44:53;;;;;;;11.20;7.40;;;;;;;7.63;100.00;96433.53;1053504;28;20498;-46
2021/05/28 01:45:24;;;;;;;8.90;7.03;;;;;;;7.61;100.00;96430.28;1053675;28;20372;-46
2021/05/28 01:45:54;;;;;;;9.37;7.97;;;;;;;7.59;100.00;96430.44;1053731;28;20011;-45
2021/05/28 01:46:25;;;;;;;12.27;8.03;;;;;;;7.59;100.00;96427.81;1053485;28;20016;-44
2021/05/28 01:46:55;;;;;;;14.37;7.87;;;;;;;7.54;100.00;96427.50;1053505;28;20009;-45
2021/05/28 01:47:26;;;;;;;9.57;7.57;;;;;;;7.56;100.00;96429.94;1053483;28;20031;-45
2021/05/28 01:47:56;;;;;;;10.37;7.97;;;;;;;7.58;100.00;96428.81;1053327;28;20024;-46
2021/05/28 01:48:27;;;;;;;8.60;7.70;;;;;;;7.55;100.00;96425.72;1053348;28;20073;-46
2021/05/28 01:48:59;;;;;;;9.70;7.70;;;;;;;7.53;100.00;96433.75;1053445;28;20523;-47
2021/05/28 01:49:29;;;;;;;10.43;7.30;;;;;;;7.50;100.00;96426.22;1053542;28;20448;-45
2021/05/28 01:50:00;;;;;;;7.87;7.07;;;;;;;7.49;100.00;96434.25;1053449;28;20019;-46
2021/05/28 01:50:42;;;;;;;14.77;7.70;;;;;;;7.47;100.00;96431.78;1053332;28;20036;-45
2021/05/28 01:51:13;;;;;;;11.73;7.65;;;;;;;7.49;100.00;96435.06;1053468;28;20405;-45
2021/05/28 01:51:50;;;;;;;9.70;7.13;;;;;;;7.52;100.00;96439.16;1053428;28;20013;-45
2021/05/28 01:52:25;;;;;;;9.40;7.28;;;;;;;7.51;100.00;96427.03;1053441;28;20468;-45
2021/05/28 01:52:55;;;;;;;9.55;7.07;;;;;;;7.51;100.00;96432.25;1053143;28;20405;-47
2021/05/28 01:53:26;;;;;;;9.23;6.83;;;;;;;7.53;100.00;96435.53;1053206;28;20008;-45
2021/05/28 01:53:56;;;;;;;8.70;7.80;;;;;;;7.51;100.00;96429.66;1053230;28;20008;-44
2021/05/28 01:54:27;;;;;;;10.80;7.90;;;;;;;7.52;100.00;96431.28;1053025;28;20008;-46
2021/05/28 01:54:57;;;;;;;9.00;7.60;;;;;;;7.51;100.00;96427.03;1057209;28;20460;-47
2021/05/28 01:55:28;;;;;;;9.67;7.80;;;;;;;7.46;100.00;96428.34;1053386;28;20011;-48
2021/05/28 01:55:58;;;;;;;8.73;7.50;;;;;;;7.46;100.00;96424.91;1053456;28;20012;-46
2021/05/28 01:56:28;;;;;;;9.70;8.03;;;;;;;7.49;100.00;96429.00;1053379;28;20011;-46
2021/05/28 01:57:00;;;;;;;10.63;7.73;;;;;;;7.49;100.00;96424.56;1053492;28;20012;-48
2021/05/28 01:57:31;;;;;;;11.75;8.35;;;;;;;7.47;100.00;96423.94;1053416;28;20038;-45
2021/05/28 01:58:06;;;;;;;8.23;7.37;;;;;;;7.46;100.00;96425.72;1053084;28;20012;-46
2021/05/28 01:58:37;;;;;;;9.73;7.82;;;;;;;7.46;100.00;96422.28;1053085;28;20452;-46
2021/05/28 01:59:08;;;;;;;10.17;7.43;;;;;;;7.46;100.00;96425.72;1044693;28;20009;-47
2021/05/28 01:59:38;;;;;;;11.07;7.63;;;;;;;7.45;100.00;96420.66;1037336;28;20101;-46
2021/05/28 02:00:14;;;;;;;8.73;7.60;;;;;;;7.41;100.00;96425.41;1036600;28;20367;-48
2021/05/28 02:00:47;;;;;;;9.15;8.10;;;;;;;7.41;100.00;96428.03;1038406;28;20498;-47
2021/05/28 02:01:17;;;;;;;11.82;8.27;;;;;;;7.42;100.00;96421.78;1046806;28;20044;-51
2021/05/28 02:01:48;;;;;;;9.47;7.83;;;;;;;7.41;100.00;96425.41;1053270;28;20035;-48
2021/05/28 02:02:18;;;;;;;12.87;8.23;;;;;;;7.42;100.00;96432.28;1053403;28;20012;-47
2021/05/28 02:02:48;;;;;;;10.37;8.00;;;;;;;7.40;100.00;96430.81;1053035;28;20436;-46
2021/05/28 02:03:19;;;;;;;9.60;8.13;;;;;;;7.38;100.00;96431.00;1053068;28;20526;-50
2021/05/28 02:03:49;;;;;;;10.73;7.93;;;;;;;7.38;100.00;96419.69;1052947;28;20008;-46
2021/05/28 02:04:21;;;;;;;11.37;8.17;;;;;;;7.41;100.00;96427.19;1053032;28;20012;-45
2021/05/28 02:04:51;;;;;;;8.73;7.20;;;;;;;7.41;100.00;96424.56;1053129;28;20365;-46
2021/05/28 02:05:22;;;;;;;10.70;8.23;;;;;;;7.41;100.00;96427.19;1052964;28;20067;-45
2021/05/28 02:05:52;;;;;;;8.83;7.53;;;;;;;7.41;100.00;96422.78;1053055;28;20026;-48
2021/05/28 02:06:23;;;;;;;9.17;7.43;;;;;;;7.44;100.00;96425.06;1052988;28;20105;-46
2021/05/28 02:06:53;;;;;;;8.20;7.30;;;;;;;7.40;100.00;96426.38;1053387;28;20012;-47
2021/05/28 02:07:24;;;;;;;9.43;8.40;;;;;;;7.41;100.00;96424.56;1048723;28;20141;-47
2021/05/28 02:07:54;;;;;;;8.93;7.43;;;;;;;7.40;100.00;96423.78;1048931;28;20096;-48
2021/05/28 02:08:24;;;;;;;8.83;7.30;;;;;;;7.42;100.00;96423.59;1048826;28;20020;-47
2021/05/28 02:08:55;;;;;;;11.57;8.00;;;;;;;7.41;100.00;96422.78;1044838;28;20013;-46
2021/05/28 02:09:25;;;;;;;11.03;7.87;;;;;;;7.40;100.00;96421.16;1048779;28;20028;-45
2021/05/28 02:09:56;;;;;;;11.30;7.80;;;;;;;7.39;100.00;96422.13;1048818;28;20012;-46
2021/05/28 02:10:28;;;;;;;11.17;7.80;;;;;;;7.41;100.00;96422.78;1048925;28;20035;-48
2021/05/28 02:10:59;;;;;;;7.88;7.03;;;;;;;7.42;100.00;96419.16;1053042;28;20016;-46
2021/05/28 02:11:29;;;;;;;9.40;8.00;;;;;;;7.40;100.00;96417.72;1053236;28;20024;-46
2021/05/28 02:12:00;;;;;;;9.37;7.90;;;;;;;7.41;100.00;96419.34;1053395;28;20023;-45
2021/05/28 02:12:30;;;;;;;9.60;7.83;;;;;;;7.42;100.00;96418.38;1057148;28;20022;-48
2021/05/28 02:13:01;;;;;;;11.23;7.57;;;;;;;7.42;100.00;96419.16;1057218;28;20372;-45
2021/05/28 02:13:31;;;;;;;9.70;7.33;;;;;;;7.40;100.00;96415.09;1057218;28;20027;-47
2021/05/28 02:14:02;;;;;;;9.90;8.07;;;;;;;7.41;100.00;96417.56;1057289;28;20070;-47
2021/05/28 02:14:32;;;;;;;14.53;8.43;;;;;;;7.43;100.00;96420.81;1053213;28;20430;-46
2021/05/28 02:15:03;;;;;;;8.53;7.53;;;;;;;7.41;100.00;96416.72;1053315;28;20073;-47
2021/05/28 02:15:34;;;;;;;9.43;7.90;;;;;;;7.41;100.00;96417.56;1053349;28;20368;-50
2021/05/28 02:16:06;;;;;;;10.40;7.73;;;;;;;7.41;100.00;96414.94;1053409;28;20048;-48
2021/05/28 02:16:36;;;;;;;10.70;8.43;;;;;;;7.41;100.00;96420.19;1052882;28;20019;-48
2021/05/28 02:17:07;;;;;;;9.47;7.90;;;;;;;7.41;100.00;96417.56;1053100;28;20043;-47
2021/05/28 02:17:37;;;;;;;13.37;7.93;;;;;;;7.38;100.00;96417.91;1052984;28;20372;-47
2021/05/28 02:18:08;;;;;;;10.13;8.20;;;;;;;7.36;100.00;96416.41;1053228;28;20079;-46
2021/05/28 02:18:39;;;;;;;9.33;7.13;;;;;;;7.38;100.00;96419.69;1052978;28;20024;-47
2021/05/28 02:19:09;;;;;;;12.90;8.27;;;;;;;7.35;100.00;96426.09;1052943;28;20376;-45
2021/05/28 02:19:40;;;;;;;9.90;7.80;;;;;;;7.35;100.00;96420.84;1048663;28;20020;-46
2021/05/28 02:20:12;;;;;;;7.87;7.07;;;;;;;7.36;100.00;96419.03;1049059;28;20016;-46
2021/05/28 02:20:42;;;;;;;8.98;7.22;;;;;;;7.34;100.00;96418.41;1052980;28;20016;-46
2021/05/28 02:21:12;;;;;;;7.57;6.30;;;;;;;7.31;100.00;96422.16;1053287;28;20460;-45
2021/05/28 02:21:43;;;;;;;9.33;6.97;;;;;;;7.34;100.00;96416.59;1057149;28;20372;-47
2021/05/28 02:22:13;;;;;;;9.17;6.33;;;;;;;7.32;100.00;96417.72;1057038;28;20043;-48
2021/05/28 02:22:44;;;;;;;9.60;6.57;;;;;;;7.30;100.00;96420.50;1053224;28;20452;-46
2021/05/28 02:23:15;;;;;;;10.67;7.93;;;;;;;7.24;100.00;96422.03;1053377;28;20020;-47
2021/05/28 02:23:45;;;;;;;7.97;7.10;;;;;;;7.25;100.00;96418.41;1052954;28;20012;-47
2021/05/28 02:24:16;;;;;;;8.23;6.53;;;;;;;7.25;100.00;96422.81;1052781;28;20278;-46